createdAt,value
2018-06-09T00:02:23.164Z,38.93
2018-06-09T00:04:53.750Z,39.97
2018-06-09T00:07:24.340Z,37.67
2018-06-09T00:09:54.970Z,39.10
2018-06-09T00:12:25.564Z,40.93
2018-06-09T00:14:56.196Z,41.00
2018-06-09T00:17:26.757Z,35.40
2018-06-09T00:19:57.332Z,39.13
2018-06-09T00:22:27.893Z,40.97
2018-06-09T00:24:58.908Z,40.20
2018-06-09T00:27:29.537Z,39.03
2018-06-09T00:30:00.102Z,37.33
2018-06-09T00:32:30.686Z,41.43
2018-06-09T00:35:01.338Z,39.20
2018-06-09T00:37:31.895Z,38.37
2018-06-09T00:40:02.556Z,40.50
2018-06-09T00:42:33.147Z,41.90
2018-06-09T00:45:03.768Z,40.07
2018-06-09T00:47:34.363Z,36.47
2018-06-09T00:50:05.025Z,45.13
2018-06-09T00:52:35.669Z,43.43
2018-06-09T00:55:06.350Z,41.03
2018-06-09T00:57:36.991Z,41.30
2018-06-09T01:00:07.764Z,42.40
2018-06-09T01:02:38.394Z,37.80
2018-06-09T01:05:09.050Z,37.43
2018-06-09T01:07:39.299Z,44.23
2018-06-09T01:10:09.833Z,41.47
2018-06-09T01:12:41.453Z,36.77
2018-06-09T01:15:12.222Z,41.20
2018-06-09T01:17:42.828Z,36.93
2018-06-09T01:20:13.526Z,41.87
2018-06-09T01:22:44.114Z,41.37
2018-06-09T01:25:14.713Z,35.10
2018-06-09T01:27:45.308Z,38.87
2018-06-09T01:30:15.909Z,41.77
2018-06-09T01:32:46.458Z,38.97
2018-06-09T01:35:17.077Z,38.10
2018-06-09T01:37:47.670Z,39.20
2018-06-09T01:40:18.261Z,44.53
2018-06-09T01:42:48.868Z,36.07
2018-06-09T01:45:19.437Z,38.27
2018-06-09T01:47:50.064Z,39.03
2018-06-09T01:50:20.621Z,37.80
2018-06-09T01:52:51.229Z,38.30
2018-06-09T01:55:22.180Z,40.97
2018-06-09T01:57:52.753Z,39.33
2018-06-09T02:00:23.433Z,36.80
2018-06-09T02:02:53.999Z,41.37
2018-06-09T02:05:24.607Z,35.40
2018-06-09T02:07:55.193Z,32.50
2018-06-09T02:10:25.851Z,33.93
2018-06-09T02:12:56.472Z,35.27
2018-06-09T02:15:27.031Z,34.20
2018-06-09T02:17:57.562Z,33.50
2018-06-09T02:20:28.177Z,27.93
2018-06-09T02:22:58.735Z,31.67
2018-06-09T02:25:29.305Z,28.40
2018-06-09T02:27:59.919Z,28.53
2018-06-09T02:30:30.522Z,24.27
2018-06-09T02:33:01.772Z,34.47
2018-06-09T02:35:32.364Z,29.30
2018-06-09T02:38:03.484Z,29.67
2018-06-09T02:40:34.040Z,29.93
2018-06-09T02:43:04.961Z,29.53
2018-06-09T02:45:35.564Z,27.60
2018-06-09T02:48:06.170Z,29.30
2018-06-09T02:50:36.762Z,28.20
2018-06-09T02:53:07.334Z,24.70
2018-06-09T02:55:37.910Z,27.00
2018-06-09T02:58:08.561Z,28.13
2018-06-09T03:00:39.133Z,26.93
2018-06-09T03:03:09.750Z,26.57
2018-06-09T03:05:40.286Z,26.93
2018-06-09T03:08:41.514Z,26.43
2018-06-09T03:11:12.081Z,23.97
2018-06-09T03:13:42.697Z,21.93
2018-06-09T03:16:13.325Z,23.73
2018-06-09T03:18:43.947Z,22.30
2018-06-09T03:21:14.506Z,20.17
2018-06-09T03:23:45.080Z,23.57
2018-06-09T03:26:15.653Z,20.73
2018-06-09T03:28:46.207Z,18.43
2018-06-09T03:31:16.776Z,18.83
2018-06-09T03:33:47.358Z,19.70
2018-06-09T03:36:17.975Z,19.93
2018-06-09T03:38:48.557Z,18.10
2018-06-09T03:41:19.160Z,18.80
2018-06-09T03:43:49.735Z,18.47
2018-06-09T03:46:20.333Z,18.83
2018-06-09T03:48:50.906Z,18.33
2018-06-09T03:51:21.527Z,17.17
2018-06-09T03:53:52.131Z,15.60
2018-06-09T03:56:22.766Z,16.67
2018-06-09T03:58:53.377Z,17.30
2018-06-09T04:01:23.951Z,16.17
2018-06-09T04:03:54.517Z,14.07
2018-06-09T04:06:25.095Z,14.70
2018-06-09T04:08:55.696Z,18.27
2018-06-09T04:11:26.253Z,16.63
2018-06-09T04:13:56.856Z,15.33
2018-06-09T04:16:27.484Z,16.03
2018-06-09T04:18:58.037Z,13.50
2018-06-09T04:21:28.624Z,14.13
2018-06-09T04:23:59.252Z,16.20
2018-06-09T04:26:29.797Z,13.37
2018-06-09T04:29:00.375Z,17.30
2018-06-09T04:31:30.924Z,15.80
2018-06-09T04:34:01.627Z,15.20
2018-06-09T04:36:32.259Z,15.90
2018-06-09T04:39:02.898Z,15.57
2018-06-09T04:41:33.462Z,15.40
2018-06-09T04:44:04.146Z,12.77
2018-06-09T04:46:34.719Z,15.87
2018-06-09T04:49:05.314Z,16.67
2018-06-09T04:51:35.945Z,17.50
2018-06-09T04:54:06.588Z,14.77
2018-06-09T04:56:37.168Z,15.33
2018-06-09T04:59:07.808Z,14.60
2018-06-09T05:01:38.464Z,13.90
2018-06-09T05:04:09.093Z,14.27
2018-06-09T05:06:39.645Z,13.23
2018-06-09T05:09:10.246Z,13.00
2018-06-09T05:11:40.824Z,13.13
2018-06-09T05:14:11.382Z,12.53
2018-06-09T05:16:42.018Z,13.00
2018-06-09T05:19:12.611Z,13.43
2018-06-09T05:21:43.185Z,12.93
2018-06-09T05:24:13.777Z,14.50
2018-06-09T05:26:44.362Z,13.17
2018-06-09T05:29:14.948Z,13.50
2018-06-09T05:31:45.562Z,12.23
2018-06-09T05:34:16.202Z,13.33
2018-06-09T05:36:46.757Z,12.23
2018-06-09T05:39:17.372Z,11.73
2018-06-09T05:41:47.990Z,14.23
2018-06-09T05:44:18.555Z,11.80
2018-06-09T05:46:50.093Z,12.50
2018-06-09T05:49:20.753Z,12.30
2018-06-09T05:51:51.360Z,13.17
2018-06-09T05:54:22.317Z,12.50
2018-06-09T05:56:52.953Z,13.33
2018-06-09T05:59:23.724Z,14.13
2018-06-09T06:01:54.328Z,11.37
2018-06-09T06:04:24.965Z,12.23
2018-06-09T06:06:55.582Z,12.57
2018-06-09T06:09:26.166Z,13.53
2018-06-09T06:11:56.802Z,13.73
2018-06-09T06:14:27.434Z,12.37
2018-06-09T06:16:57.994Z,11.90
2018-06-09T06:19:29.002Z,11.67
2018-06-09T06:21:59.604Z,10.63
2018-06-09T06:24:29.887Z,12.80
2018-06-09T06:27:00.354Z,12.50
2018-06-09T06:29:30.941Z,12.37
2018-06-09T06:32:01.643Z,13.77
2018-06-09T06:34:32.269Z,11.70
2018-06-09T06:37:02.849Z,10.43
2018-06-09T06:39:33.399Z,13.37
2018-06-09T06:42:03.981Z,11.30
2018-06-09T06:44:34.533Z,12.67
2018-06-09T06:47:05.268Z,12.60
2018-06-09T06:49:35.852Z,12.77
2018-06-09T06:52:06.484Z,11.10
2018-06-09T06:54:37.044Z,11.63
2018-06-09T06:57:07.613Z,10.63
2018-06-09T06:59:38.182Z,10.97
2018-06-09T07:02:08.813Z,12.63
2018-06-09T07:04:39.416Z,11.97
2018-06-09T07:07:09.981Z,12.63
2018-06-09T07:09:40.535Z,13.10
2018-06-09T07:12:11.128Z,12.97
2018-06-09T07:14:41.668Z,14.23
2018-06-09T07:17:12.232Z,12.40
2018-06-09T07:19:42.837Z,15.97
2018-06-09T07:22:13.413Z,12.13
2018-06-09T07:24:43.999Z,12.70
2018-06-09T07:27:14.596Z,15.33
2018-06-09T07:29:45.198Z,10.97
2018-06-09T07:32:15.798Z,12.37
2018-06-09T07:34:46.350Z,12.13
2018-06-09T07:37:16.900Z,11.73
2018-06-09T07:39:47.467Z,13.83
2018-06-09T07:42:18.022Z,13.80
2018-06-09T07:44:48.779Z,11.27
2018-06-09T07:47:50.210Z,14.40
2018-06-09T07:50:20.741Z,14.47
2018-06-09T07:52:51.318Z,10.43
2018-06-09T07:55:21.904Z,13.17
2018-06-09T07:57:52.484Z,13.27
2018-06-09T08:00:23.087Z,11.43
2018-06-09T08:02:53.672Z,12.17
2018-06-09T08:05:24.223Z,11.17
2018-06-09T08:07:54.793Z,12.60
2018-06-09T08:10:25.392Z,11.07
2018-06-09T08:12:56.008Z,10.73
2018-06-09T08:15:26.610Z,10.93
2018-06-09T08:17:57.213Z,11.60
2018-06-09T08:20:27.774Z,11.90
2018-06-09T08:22:58.320Z,16.07
2018-06-09T08:25:28.893Z,11.70
2018-06-09T08:31:00.653Z,12.70
2018-06-09T08:33:31.210Z,14.60
2018-06-09T08:36:01.783Z,11.60
2018-06-09T08:38:33.454Z,16.03
2018-06-09T08:41:04.020Z,12.00
2018-06-09T08:43:34.603Z,13.93
2018-06-09T08:46:05.299Z,13.60
2018-06-09T08:48:35.886Z,13.83
2018-06-09T08:51:06.452Z,12.90
2018-06-09T08:53:37.029Z,11.70
2018-06-09T08:56:07.633Z,11.23
2018-06-09T08:58:38.213Z,13.37
2018-06-09T09:01:08.870Z,11.00
2018-06-09T09:03:40.142Z,14.93
2018-06-09T09:06:10.733Z,12.63
2018-06-09T09:08:41.348Z,9.97
2018-06-09T09:11:11.942Z,12.20
2018-06-09T09:13:42.539Z,10.23
2018-06-09T09:16:13.158Z,10.80
2018-06-09T09:18:43.748Z,10.80
2018-06-09T09:21:14.295Z,12.27
2018-06-09T09:23:44.865Z,9.77
2018-06-09T09:26:15.439Z,12.73
2018-06-09T09:28:46.026Z,13.83
2018-06-09T09:31:16.570Z,11.27
2018-06-09T09:33:47.130Z,10.77
2018-06-09T09:36:17.685Z,10.60
2018-06-09T09:38:48.284Z,12.63
2018-06-09T09:41:18.895Z,10.27
2018-06-09T09:43:49.502Z,10.20
2018-06-09T09:46:20.069Z,12.20
2018-06-09T09:48:50.635Z,10.10
2018-06-09T09:51:21.168Z,12.27
2018-06-09T09:53:51.783Z,11.40
2018-06-09T09:56:22.316Z,14.30
2018-06-09T09:58:52.866Z,10.07
2018-06-09T10:01:23.459Z,9.90
2018-06-09T10:03:54.029Z,13.47
2018-06-09T10:06:24.596Z,11.77
2018-06-09T10:08:55.138Z,9.97
2018-06-09T10:11:25.708Z,11.40
2018-06-09T10:13:56.260Z,10.80
2018-06-09T10:19:03.513Z,10.40
2018-06-09T10:21:34.148Z,12.00
2018-06-09T10:24:04.668Z,12.97
2018-06-09T10:26:35.248Z,10.97
2018-06-09T10:29:05.817Z,10.53
2018-06-09T10:31:36.443Z,10.50
2018-06-09T10:34:06.940Z,10.10
2018-06-09T10:36:37.555Z,14.70
2018-06-09T10:39:09.094Z,10.40
2018-06-09T10:41:40.809Z,9.40
2018-06-09T10:44:11.338Z,10.87
2018-06-09T10:46:41.892Z,9.97
2018-06-09T10:49:12.435Z,12.07
2018-06-09T10:51:42.977Z,11.13
2018-06-09T10:54:13.524Z,11.20
2018-06-09T10:56:44.106Z,11.77
2018-06-09T10:59:14.657Z,9.40
2018-06-09T11:01:44.908Z,12.07
2018-06-09T11:04:15.298Z,10.90
2018-06-09T11:06:45.902Z,11.30
2018-06-09T11:09:16.445Z,10.60
2018-06-09T11:11:46.995Z,10.27
2018-06-09T11:14:17.520Z,10.43
2018-06-09T11:16:48.093Z,10.00
2018-06-09T11:19:18.344Z,14.93
2018-06-09T11:21:48.782Z,10.67
2018-06-09T11:24:19.342Z,10.40
2018-06-09T11:26:49.907Z,10.70
2018-06-09T11:29:20.513Z,10.70
2018-06-09T11:31:51.165Z,10.47
2018-06-09T11:34:21.781Z,10.00
2018-06-09T11:36:52.343Z,8.87
2018-06-09T11:39:22.934Z,8.50
2018-06-09T11:41:53.574Z,9.50
2018-06-09T11:44:24.233Z,9.37
2018-06-09T11:46:54.878Z,10.57
2018-06-09T11:49:25.491Z,10.90
2018-06-09T11:51:56.037Z,12.53
2018-06-09T11:54:26.607Z,9.80
2018-06-09T11:56:57.191Z,13.60
2018-06-09T11:59:27.914Z,9.57
2018-06-09T12:01:58.512Z,10.00
2018-06-09T12:04:29.166Z,9.70
2018-06-09T12:07:00.505Z,10.50
2018-06-09T12:09:31.231Z,11.13
2018-06-09T12:12:01.874Z,9.27
2018-06-09T12:14:32.173Z,13.23
2018-06-09T12:17:02.618Z,10.80
2018-06-09T12:19:33.176Z,11.33
2018-06-09T12:22:03.838Z,9.57
2018-06-09T12:24:34.406Z,11.40
2018-06-09T12:27:05.049Z,9.77
2018-06-09T12:29:35.654Z,10.50
2018-06-09T12:32:06.339Z,10.50
2018-06-09T12:34:36.934Z,9.77
2018-06-09T12:37:07.569Z,10.50
2018-06-09T12:39:38.121Z,10.43
2018-06-09T12:42:08.723Z,11.00
2018-06-09T12:44:39.288Z,10.37
2018-06-09T12:47:09.887Z,9.47
2018-06-09T12:49:40.483Z,10.40
2018-06-09T12:52:11.112Z,11.03
2018-06-09T12:54:41.672Z,9.17
2018-06-09T12:57:12.330Z,13.80
2018-06-09T12:59:42.865Z,15.80
2018-06-09T13:02:13.448Z,11.70
2018-06-09T13:04:44.037Z,11.47
2018-06-09T13:07:14.623Z,12.50
2018-06-09T13:09:45.234Z,10.47
2018-06-09T13:12:15.809Z,9.80
2018-06-09T13:14:46.405Z,11.43
2018-06-09T13:17:16.973Z,11.37
2018-06-09T13:19:47.625Z,12.90
2018-06-09T13:22:17.940Z,10.30
2018-06-09T13:24:48.372Z,11.17
2018-06-09T13:27:18.965Z,9.33
2018-06-09T13:29:49.536Z,8.83
2018-06-09T13:32:20.197Z,14.07
2018-06-09T13:34:50.857Z,11.70
2018-06-09T13:37:21.487Z,11.37
2018-06-09T13:39:52.051Z,9.37
2018-06-09T13:42:22.617Z,11.80
2018-06-09T13:44:53.246Z,11.30
2018-06-09T13:47:23.863Z,8.27
2018-06-09T13:49:54.474Z,8.50
2018-06-09T13:52:24.755Z,9.80
2018-06-09T13:54:55.172Z,13.80
2018-06-09T13:57:25.783Z,12.03
2018-06-09T13:59:56.361Z,11.40
2018-06-09T14:02:26.981Z,10.10
2018-06-09T14:04:57.574Z,7.93
2018-06-09T14:07:28.183Z,13.27
2018-06-09T14:09:58.754Z,10.43
2018-06-09T14:12:29.367Z,10.77
2018-06-09T14:14:59.962Z,9.43
2018-06-09T14:17:30.517Z,10.13
2018-06-09T14:20:00.805Z,10.83
2018-06-09T14:22:31.246Z,11.30
2018-06-09T14:25:01.847Z,10.23
2018-06-09T14:27:32.474Z,8.87
2018-06-09T14:30:03.041Z,11.90
2018-06-09T14:32:33.612Z,9.47
2018-06-09T14:35:04.242Z,10.00
2018-06-09T14:37:34.808Z,8.40
2018-06-09T14:40:06.198Z,8.83
2018-06-09T14:42:36.732Z,8.87
2018-06-09T14:45:07.436Z,9.37
2018-06-09T14:47:38.001Z,9.27
2018-06-09T14:50:08.635Z,7.60
2018-06-09T14:52:39.274Z,8.10
2018-06-09T14:55:09.840Z,9.80
2018-06-09T14:57:40.462Z,7.97
2018-06-09T15:00:11.028Z,9.53
2018-06-09T15:02:41.627Z,9.33
2018-06-09T15:05:12.239Z,8.90
2018-06-09T15:07:42.856Z,9.50
2018-06-09T15:10:13.497Z,8.90
2018-06-09T15:12:44.097Z,9.83
2018-06-09T15:15:14.760Z,9.57
2018-06-09T15:17:45.385Z,8.90
2018-06-09T15:20:16.003Z,9.50
2018-06-09T15:22:46.652Z,10.83
2018-06-09T15:25:17.280Z,10.03
2018-06-09T15:27:47.994Z,12.83
2018-06-09T15:30:18.644Z,10.80
2018-06-09T15:32:49.240Z,8.73
2018-06-09T15:35:19.902Z,8.50
2018-06-09T15:37:50.457Z,8.20
2018-06-09T15:40:21.023Z,10.23
2018-06-09T15:42:51.618Z,9.07
2018-06-09T15:45:22.227Z,10.27
2018-06-09T15:47:52.784Z,9.77
2018-06-09T15:50:23.404Z,11.20
2018-06-09T15:52:53.983Z,9.30
2018-06-09T15:55:24.254Z,9.43
2018-06-09T15:57:54.692Z,10.30
2018-06-09T16:00:25.280Z,9.10
2018-06-09T16:02:55.864Z,10.67
2018-06-09T16:05:26.588Z,9.10
2018-06-09T16:07:57.149Z,9.30
2018-06-09T16:10:27.724Z,8.97
2018-06-09T16:12:58.259Z,9.57
2018-06-09T16:15:28.837Z,8.40
2018-06-09T16:17:59.416Z,8.40
2018-06-09T16:20:29.999Z,9.07
2018-06-09T16:23:00.536Z,7.90
2018-06-09T16:25:31.218Z,8.00
2018-06-09T16:28:01.848Z,9.50
2018-06-09T16:30:32.433Z,9.20
2018-06-09T16:33:02.993Z,9.70
2018-06-09T16:35:33.723Z,9.73
2018-06-09T16:38:04.319Z,9.40
2018-06-09T16:40:34.955Z,8.93
2018-06-09T16:43:05.517Z,8.93
2018-06-09T16:45:36.111Z,8.73
2018-06-09T16:48:06.819Z,9.00
2018-06-09T16:50:37.394Z,9.30
2018-06-09T16:53:07.949Z,12.10
2018-06-09T16:55:38.573Z,9.50
2018-06-09T16:58:09.178Z,10.57
2018-06-09T17:00:39.784Z,9.10
2018-06-09T17:03:10.375Z,10.10
2018-06-09T17:05:40.953Z,10.37
2018-06-09T17:08:11.534Z,9.63
2018-06-09T17:10:42.137Z,10.23
2018-06-09T17:13:12.674Z,9.47
2018-06-09T17:15:43.274Z,12.17
2018-06-09T17:18:13.894Z,10.30
2018-06-09T17:20:44.436Z,9.37
2018-06-09T17:23:15.072Z,8.37
2018-06-09T17:25:45.781Z,11.30
2018-06-09T17:28:16.402Z,10.30
2018-06-09T17:30:47.053Z,9.80
2018-06-09T17:33:17.734Z,10.00
2018-06-09T17:35:48.343Z,10.33
2018-06-09T17:38:18.969Z,11.27
2018-06-09T17:40:49.593Z,9.97
2018-06-09T17:43:20.211Z,9.83
2018-06-09T17:45:50.792Z,11.60
2018-06-09T17:48:21.371Z,9.93
2018-06-09T17:50:52.012Z,10.27
2018-06-09T17:53:22.645Z,9.37
2018-06-09T17:55:53.210Z,9.43
2018-06-09T17:58:23.758Z,9.57
2018-06-09T18:00:54.334Z,9.33
2018-06-09T18:03:24.938Z,10.07
2018-06-09T18:05:55.513Z,10.57
2018-06-09T18:08:26.087Z,11.40
2018-06-09T18:10:56.677Z,11.00
2018-06-09T18:13:27.293Z,10.23
2018-06-09T18:15:57.848Z,9.93
2018-06-09T18:18:28.444Z,10.50
2018-06-09T18:20:59.017Z,11.30
2018-06-09T18:23:29.577Z,10.80
2018-06-09T18:26:00.202Z,10.37
2018-06-09T18:28:30.756Z,11.10
2018-06-09T18:31:01.355Z,11.70
2018-06-09T18:33:31.920Z,10.27
2018-06-09T18:36:02.477Z,12.80
2018-06-09T18:38:33.077Z,11.60
2018-06-09T18:41:03.686Z,12.87
2018-06-09T18:43:34.263Z,11.23
2018-06-09T18:46:04.853Z,12.60
2018-06-09T18:48:35.409Z,12.80
2018-06-09T18:51:06.045Z,13.20
2018-06-09T18:53:36.596Z,14.17
2018-06-09T18:56:07.188Z,12.73
2018-06-09T18:58:37.824Z,13.23
2018-06-09T19:01:08.344Z,13.13
2018-06-09T19:03:38.935Z,14.80
2018-06-09T19:06:09.481Z,14.70
2018-06-09T19:08:40.022Z,13.83
2018-06-09T19:11:10.684Z,12.27
2018-06-09T19:13:41.228Z,14.57
2018-06-09T19:16:11.825Z,15.40
2018-06-09T19:18:42.398Z,15.83
2018-06-09T19:21:13.020Z,14.13
2018-06-09T19:23:43.636Z,16.53
2018-06-09T19:26:14.177Z,14.87
2018-06-09T19:28:44.757Z,17.13
2018-06-09T19:31:15.334Z,15.60
2018-06-09T19:33:45.937Z,14.73
2018-06-09T19:36:16.512Z,13.97
2018-06-09T19:38:47.056Z,16.10
2018-06-09T19:41:17.654Z,15.03
2018-06-09T19:43:48.297Z,15.47
2018-06-09T19:46:18.857Z,15.07
2018-06-09T19:48:49.577Z,15.37
2018-06-09T19:51:20.170Z,15.60
2018-06-09T19:53:50.927Z,13.53
2018-06-09T19:56:21.489Z,13.80
2018-06-09T19:58:52.084Z,15.87
2018-06-09T20:01:22.661Z,16.40
2018-06-09T20:03:53.304Z,15.20
2018-06-09T20:06:23.926Z,16.77
2018-06-09T20:08:54.539Z,14.53
2018-06-09T20:11:25.148Z,15.13
2018-06-09T20:13:55.721Z,14.43
2018-06-09T20:16:26.356Z,14.60
2018-06-09T20:18:56.956Z,15.03
2018-06-09T20:21:27.565Z,15.53
2018-06-09T20:23:57.806Z,15.20
2018-06-09T20:26:28.283Z,15.77
2018-06-09T20:28:58.857Z,13.10
2018-06-09T20:31:29.490Z,14.83
2018-06-09T20:34:00.165Z,14.63
2018-06-09T20:36:31.760Z,14.30
2018-06-09T20:39:02.511Z,15.63
2018-06-09T20:41:33.719Z,15.80
2018-06-09T20:44:04.380Z,15.23
2018-06-09T20:46:36.091Z,14.50
2018-06-09T20:49:06.744Z,15.27
2018-06-09T20:51:37.409Z,14.20
2018-06-09T20:54:07.977Z,14.63
2018-06-09T20:56:38.600Z,15.13
2018-06-09T20:59:09.228Z,16.70
2018-06-09T21:01:39.836Z,16.20
2018-06-09T21:04:10.406Z,15.57
2018-06-09T21:06:41.027Z,13.87
2018-06-09T21:09:11.660Z,14.63
2018-06-09T21:11:42.350Z,14.43
2018-06-09T21:14:12.897Z,15.67
2018-06-09T21:16:43.529Z,14.43
2018-06-09T21:19:14.100Z,16.53
2018-06-09T21:21:44.796Z,17.97
2018-06-09T21:24:15.386Z,15.47
2018-06-09T21:26:51.178Z,14.50
2018-06-09T21:29:26.904Z,16.47
2018-06-09T21:31:57.540Z,16.70
2018-06-09T21:34:50.083Z,15.37
2018-06-09T21:37:25.696Z,16.93
2018-06-09T21:40:05.215Z,21.27
2018-06-09T21:42:40.180Z,19.43
2018-06-09T21:45:12.046Z,16.73
2018-06-09T21:47:42.593Z,17.17
2018-06-09T21:50:13.205Z,17.03
2018-06-09T21:52:43.804Z,14.93
2018-06-09T21:55:14.393Z,15.13
2018-06-09T21:57:45.031Z,14.27
2018-06-09T22:00:15.635Z,14.17
2018-06-09T22:02:46.389Z,16.07
2018-06-09T22:05:17.233Z,12.97
2018-06-09T22:07:47.831Z,13.43
2018-06-09T22:10:18.496Z,12.00
2018-06-09T22:12:49.133Z,12.63
2018-06-09T22:15:19.706Z,12.03
2018-06-09T22:17:50.334Z,12.97
2018-06-09T22:20:21.014Z,11.60
2018-06-09T22:22:51.702Z,11.80
2018-06-09T22:25:27.333Z,11.90
2018-06-09T22:27:57.899Z,11.63
2018-06-09T22:30:28.497Z,10.90
2018-06-09T22:32:59.119Z,11.93
2018-06-09T22:35:29.725Z,10.90
2018-06-09T22:38:00.286Z,11.03
2018-06-09T22:40:30.886Z,10.60
2018-06-09T22:43:01.581Z,10.10
2018-06-09T22:45:32.142Z,11.33
2018-06-09T22:48:02.774Z,9.67
2018-06-09T22:50:33.343Z,9.43
2018-06-09T22:53:03.941Z,10.80
2018-06-09T22:55:34.574Z,10.60
2018-06-09T22:58:05.148Z,8.73
2018-06-09T23:00:49.015Z,7.80
2018-06-09T23:03:19.789Z,9.33
2018-06-09T23:05:50.390Z,10.67
2018-06-09T23:08:20.971Z,10.77
2018-06-09T23:10:51.545Z,10.60
2018-06-09T23:13:22.105Z,9.47
2018-06-09T23:15:52.645Z,9.57
2018-06-09T23:18:23.215Z,10.40
2018-06-09T23:20:53.753Z,8.73
2018-06-09T23:23:24.352Z,9.40
2018-06-09T23:25:54.966Z,8.83
2018-06-09T23:28:25.549Z,9.33
2018-06-09T23:30:56.109Z,9.70
2018-06-09T23:33:26.693Z,9.93
2018-06-09T23:35:57.241Z,9.17
2018-06-09T23:38:27.806Z,10.93
2018-06-09T23:40:58.377Z,8.93
2018-06-09T23:43:29.001Z,9.67
2018-06-09T23:45:59.607Z,9.87
2018-06-09T23:48:30.134Z,8.93
2018-06-09T23:51:00.693Z,9.20
2018-06-09T23:53:31.261Z,8.50
2018-06-09T23:56:01.823Z,9.03
2018-06-09T23:58:32.386Z,7.80
